sensor_id;sensor_type;location;lat;lon;timestamp;temperature;humidity
37310;DHT22;23195;47.744;7.358;2023-09-12T00:01:06;20.20;99.90
37310;DHT22;23195;47.744;7.358;2023-09-12T00:03:32;20.20;99.90
37310;DHT22;23195;47.744;7.358;2023-09-12T00:06:00;20.20;99.90
37310;DHT22;23195;47.744;7.358;2023-09-12T00:08:26;20.00;99.90
37310;DHT22;23195;47.744;7.358;2023-09-12T00:13:25;20.20;99.90
37310;DHT22;23195;47.744;7.358;2023-09-12T00:15:51;20.20;99.90
37310;DHT22;23195;47.744;7.358;2023-09-12T00:18:19;20.20;99.90
37310;DHT22;23195;47.744;7.358;2023-09-12T00:20:45;20.20;99.90
37310;DHT22;23195;47.744;7.358;2023-09-12T00:23:11;20.30;99.90
37310;DHT22;23195;47.744;7.358;2023-09-12T00:25:36;20.30;99.90
37310;DHT22;23195;47.744;7.358;2023-09-12T00:28:03;20.30;99.90
37310;DHT22;23195;47.744;7.358;2023-09-12T00:30:28;20.30;99.90
37310;DHT22;23195;47.744;7.358;2023-09-12T00:32:54;20.40;99.90
37310;DHT22;23195;47.744;7.358;2023-09-12T00:35:20;20.40;99.90
37310;DHT22;23195;47.744;7.358;2023-09-12T00:37:46;20.50;99.90
37310;DHT22;23195;47.744;7.358;2023-09-12T00:40:12;20.50;99.90
37310;DHT22;23195;47.744;7.358;2023-09-12T00:42:37;20.60;99.90
37310;DHT22;23195;47.744;7.358;2023-09-12T00:45:03;20.60;99.90
37310;DHT22;23195;47.744;7.358;2023-09-12T00:47:30;20.60;99.90
37310;DHT22;23195;47.744;7.358;2023-09-12T00:49:57;20.70;99.90
37310;DHT22;23195;47.744;7.358;2023-09-12T00:52:28;20.80;99.90
37310;DHT22;23195;47.744;7.358;2023-09-12T00:54:55;20.80;99.90
37310;DHT22;23195;47.744;7.358;2023-09-12T00:57:21;20.80;99.90
37310;DHT22;23195;47.744;7.358;2023-09-12T00:59:48;20.90;99.90
37310;DHT22;23195;47.744;7.358;2023-09-12T01:02:14;20.90;99.90
37310;DHT22;23195;47.744;7.358;2023-09-12T01:04:44;20.90;99.90
37310;DHT22;23195;47.744;7.358;2023-09-12T01:07:10;20.90;99.90
37310;DHT22;23195;47.744;7.358;2023-09-12T01:09:36;20.90;99.90
37310;DHT22;23195;47.744;7.358;2023-09-12T01:12:02;20.90;99.90
37310;DHT22;23195;47.744;7.358;2023-09-12T01:14:29;20.90;99.90
37310;DHT22;23195;47.744;7.358;2023-09-12T01:16:58;20.90;99.90
37310;DHT22;23195;47.744;7.358;2023-09-12T01:19:24;20.80;99.90
37310;DHT22;23195;47.744;7.358;2023-09-12T01:22:24;20.90;99.90
37310;DHT22;23195;47.744;7.358;2023-09-12T01:27:55;21.00;99.90
37310;DHT22;23195;47.744;7.358;2023-09-12T01:30:23;21.00;99.90
37310;DHT22;23195;47.744;7.358;2023-09-12T01:32:50;21.00;99.90
37310;DHT22;23195;47.744;7.358;2023-09-12T01:35:17;20.90;99.90
37310;DHT22;23195;47.744;7.358;2023-09-12T01:37:46;20.80;99.90
37310;DHT22;23195;47.744;7.358;2023-09-12T01:40:11;20.80;99.90
37310;DHT22;23195;47.744;7.358;2023-09-12T01:42:44;20.70;99.90
37310;DHT22;23195;47.744;7.358;2023-09-12T01:45:17;20.70;99.90
37310;DHT22;23195;47.744;7.358;2023-09-12T01:47:45;20.70;99.90
37310;DHT22;23195;47.744;7.358;2023-09-12T01:50:13;20.60;99.90
37310;DHT22;23195;47.744;7.358;2023-09-12T01:52:40;20.60;99.90
37310;DHT22;23195;47.744;7.358;2023-09-12T01:55:08;20.60;99.90
37310;DHT22;23195;47.744;7.358;2023-09-12T01:57:36;20.50;99.90
37310;DHT22;23195;47.744;7.358;2023-09-12T02:00:03;20.50;99.90
37310;DHT22;23195;47.744;7.358;2023-09-12T02:02:29;20.60;99.90
37310;DHT22;23195;47.744;7.358;2023-09-12T02:05:20;20.50;99.90
37310;DHT22;23195;47.744;7.358;2023-09-12T02:07:47;20.60;99.90
37310;DHT22;23195;47.744;7.358;2023-09-12T02:10:14;20.50;99.90
37310;DHT22;23195;47.744;7.358;2023-09-12T02:12:40;20.60;99.90
37310;DHT22;23195;47.744;7.358;2023-09-12T02:15:09;20.60;99.90
37310;DHT22;23195;47.744;7.358;2023-09-12T02:17:35;20.60;99.90
37310;DHT22;23195;47.744;7.358;2023-09-12T02:20:01;20.50;99.90
37310;DHT22;23195;47.744;7.358;2023-09-12T02:22:36;20.50;99.90
37310;DHT22;23195;47.744;7.358;2023-09-12T02:25:04;20.40;99.90
37310;DHT22;23195;47.744;7.358;2023-09-12T02:27:31;20.40;99.90
37310;DHT22;23195;47.744;7.358;2023-09-12T02:30:00;20.40;99.90
37310;DHT22;23195;47.744;7.358;2023-09-12T02:32:28;20.40;99.90
37310;DHT22;23195;47.744;7.358;2023-09-12T02:34:58;20.50;99.90
37310;DHT22;23195;47.744;7.358;2023-09-12T02:37:24;20.50;99.90
37310;DHT22;23195;47.744;7.358;2023-09-12T02:39:50;20.50;99.90
37310;DHT22;23195;47.744;7.358;2023-09-12T02:42:19;20.50;99.90
37310;DHT22;23195;47.744;7.358;2023-09-12T02:44:45;20.50;99.90
37310;DHT22;23195;47.744;7.358;2023-09-12T02:47:11;20.50;99.90
37310;DHT22;23195;47.744;7.358;2023-09-12T02:49:40;20.40;99.90
37310;DHT22;23195;47.744;7.358;2023-09-12T02:52:06;20.40;99.90
37310;DHT22;23195;47.744;7.358;2023-09-12T02:54:32;20.40;99.90
37310;DHT22;23195;47.744;7.358;2023-09-12T02:57:03;20.40;99.90
37310;DHT22;23195;47.744;7.358;2023-09-12T02:59:29;20.30;99.90
37310;DHT22;23195;47.744;7.358;2023-09-12T03:01:56;20.30;99.90
37310;DHT22;23195;47.744;7.358;2023-09-12T03:04:22;20.30;99.90
37310;DHT22;23195;47.744;7.358;2023-09-12T03:06:48;20.30;99.90
37310;DHT22;23195;47.744;7.358;2023-09-12T03:09:14;20.30;99.90
37310;DHT22;23195;47.744;7.358;2023-09-12T03:11:42;20.30;99.90
37310;DHT22;23195;47.744;7.358;2023-09-12T03:14:07;20.30;99.90
37310;DHT22;23195;47.744;7.358;2023-09-12T03:16:33;20.30;99.90
37310;DHT22;23195;47.744;7.358;2023-09-12T03:18:59;20.30;99.90
37310;DHT22;23195;47.744;7.358;2023-09-12T03:21:26;20.30;99.90
37310;DHT22;23195;47.744;7.358;2023-09-12T03:23:52;20.30;99.90
37310;DHT22;23195;47.744;7.358;2023-09-12T03:26:18;20.40;99.90
37310;DHT22;23195;47.744;7.358;2023-09-12T03:28:52;20.30;99.90
37310;DHT22;23195;47.744;7.358;2023-09-12T03:31:18;20.30;99.90
37310;DHT22;23195;47.744;7.358;2023-09-12T03:33:44;20.40;99.90
37310;DHT22;23195;47.744;7.358;2023-09-12T03:36:16;20.30;99.90
37310;DHT22;23195;47.744;7.358;2023-09-12T03:38:42;20.40;99.90
37310;DHT22;23195;47.744;7.358;2023-09-12T03:41:08;20.40;99.90
37310;DHT22;23195;47.744;7.358;2023-09-12T03:43:34;20.40;99.90
37310;DHT22;23195;47.744;7.358;2023-09-12T03:46:00;20.40;99.90
37310;DHT22;23195;47.744;7.358;2023-09-12T03:48:26;20.40;99.90
37310;DHT22;23195;47.744;7.358;2023-09-12T03:50:51;20.40;99.90
37310;DHT22;23195;47.744;7.358;2023-09-12T03:53:20;20.40;99.90
37310;DHT22;23195;47.744;7.358;2023-09-12T03:55:46;20.30;99.90
37310;DHT22;23195;47.744;7.358;2023-09-12T03:58:11;20.30;99.90
37310;DHT22;23195;47.744;7.358;2023-09-12T04:00:37;20.30;99.90
37310;DHT22;23195;47.744;7.358;2023-09-12T04:03:03;20.20;99.90
37310;DHT22;23195;47.744;7.358;2023-09-12T04:05:29;20.20;99.90
37310;DHT22;23195;47.744;7.358;2023-09-12T04:07:55;20.20;99.90
37310;DHT22;23195;47.744;7.358;2023-09-12T04:10:21;20.00;99.90
37310;DHT22;23195;47.744;7.358;2023-09-12T04:12:47;20.00;99.90
37310;DHT22;23195;47.744;7.358;2023-09-12T04:15:12;20.00;99.90
37310;DHT22;23195;47.744;7.358;2023-09-12T04:17:38;19.90;99.90
37310;DHT22;23195;47.744;7.358;2023-09-12T04:20:04;19.90;99.90
37310;DHT22;23195;47.744;7.358;2023-09-12T04:22:30;19.90;99.90
37310;DHT22;23195;47.744;7.358;2023-09-12T04:24:58;19.90;99.90
37310;DHT22;23195;47.744;7.358;2023-09-12T04:27:27;19.80;99.90
37310;DHT22;23195;47.744;7.358;2023-09-12T04:29:53;19.70;99.90
37310;DHT22;23195;47.744;7.358;2023-09-12T04:32:18;19.70;99.90
37310;DHT22;23195;47.744;7.358;2023-09-12T04:34:49;19.60;99.90
37310;DHT22;23195;47.744;7.358;2023-09-12T04:37:15;19.50;99.90
37310;DHT22;23195;47.744;7.358;2023-09-12T04:39:41;19.60;99.90
37310;DHT22;23195;47.744;7.358;2023-09-12T04:42:12;19.50;99.90
37310;DHT22;23195;47.744;7.358;2023-09-12T04:44:41;20.20;99.90
37310;DHT22;23195;47.744;7.358;2023-09-12T04:47:07;19.50;99.90
37310;DHT22;23195;47.744;7.358;2023-09-12T04:49:33;19.50;99.90
37310;DHT22;23195;47.744;7.358;2023-09-12T04:51:59;19.40;99.90
37310;DHT22;23195;47.744;7.358;2023-09-12T04:54:28;19.40;99.90
37310;DHT22;23195;47.744;7.358;2023-09-12T04:56:54;19.30;99.90
37310;DHT22;23195;47.744;7.358;2023-09-12T04:59:19;19.30;99.90
37310;DHT22;23195;47.744;7.358;2023-09-12T05:01:48;19.20;99.90
37310;DHT22;23195;47.744;7.358;2023-09-12T05:04:16;19.10;99.90
37310;DHT22;23195;47.744;7.358;2023-09-12T05:06:42;19.20;99.90
37310;DHT22;23195;47.744;7.358;2023-09-12T05:09:08;19.10;99.90
37310;DHT22;23195;47.744;7.358;2023-09-12T05:11:40;19.10;99.90
37310;DHT22;23195;47.744;7.358;2023-09-12T05:14:05;19.20;99.90
37310;DHT22;23195;47.744;7.358;2023-09-12T05:16:31;19.20;99.90
37310;DHT22;23195;47.744;7.358;2023-09-12T05:18:57;19.20;99.90
37310;DHT22;23195;47.744;7.358;2023-09-12T05:21:23;19.30;99.90
37310;DHT22;23195;47.744;7.358;2023-09-12T05:23:49;19.40;99.90
37310;DHT22;23195;47.744;7.358;2023-09-12T05:26:14;19.50;99.90
37310;DHT22;23195;47.744;7.358;2023-09-12T05:28:41;19.60;99.90
37310;DHT22;23195;47.744;7.358;2023-09-12T05:31:06;19.80;99.90
37310;DHT22;23195;47.744;7.358;2023-09-12T05:33:32;19.90;99.90
37310;DHT22;23195;47.744;7.358;2023-09-12T05:35:58;19.90;99.90
37310;DHT22;23195;47.744;7.358;2023-09-12T05:38:24;20.10;99.90
37310;DHT22;23195;47.744;7.358;2023-09-12T05:40:50;20.10;99.90
37310;DHT22;23195;47.744;7.358;2023-09-12T05:43:25;20.20;99.90
37310;DHT22;23195;47.744;7.358;2023-09-12T05:45:53;20.30;99.90
37310;DHT22;23195;47.744;7.358;2023-09-12T05:48:25;20.40;99.90
37310;DHT22;23195;47.744;7.358;2023-09-12T05:50:51;20.50;99.90
37310;DHT22;23195;47.744;7.358;2023-09-12T05:53:16;20.60;99.90
37310;DHT22;23195;47.744;7.358;2023-09-12T05:55:45;20.70;99.90
37310;DHT22;23195;47.744;7.358;2023-09-12T05:58:11;20.80;99.90
37310;DHT22;23195;47.744;7.358;2023-09-12T06:00:37;20.90;99.90
37310;DHT22;23195;47.744;7.358;2023-09-12T06:03:13;21.10;99.90
37310;DHT22;23195;47.744;7.358;2023-09-12T06:05:39;21.10;99.90
37310;DHT22;23195;47.744;7.358;2023-09-12T06:08:05;21.20;99.90
37310;DHT22;23195;47.744;7.358;2023-09-12T06:10:31;21.30;99.90
37310;DHT22;23195;47.744;7.358;2023-09-12T06:12:57;21.50;99.90
37310;DHT22;23195;47.744;7.358;2023-09-12T06:15:23;21.40;99.90
37310;DHT22;23195;47.744;7.358;2023-09-12T06:17:49;21.40;99.90
37310;DHT22;23195;47.744;7.358;2023-09-12T06:20:15;21.30;99.90
37310;DHT22;23195;47.744;7.358;2023-09-12T06:22:40;21.40;99.90
37310;DHT22;23195;47.744;7.358;2023-09-12T06:25:06;21.40;99.90
37310;DHT22;23195;47.744;7.358;2023-09-12T06:27:32;21.50;99.90
37310;DHT22;23195;47.744;7.358;2023-09-12T06:29:58;21.50;99.90
37310;DHT22;23195;47.744;7.358;2023-09-12T06:32:24;21.60;99.90
37310;DHT22;23195;47.744;7.358;2023-09-12T06:34:50;21.60;99.90
37310;DHT22;23195;47.744;7.358;2023-09-12T06:37:16;21.60;99.90
37310;DHT22;23195;47.744;7.358;2023-09-12T06:39:41;21.60;99.90
37310;DHT22;23195;47.744;7.358;2023-09-12T06:42:08;21.60;99.90
37310;DHT22;23195;47.744;7.358;2023-09-12T06:44:36;21.60;99.90
37310;DHT22;23195;47.744;7.358;2023-09-12T06:47:05;21.70;99.90
37310;DHT22;23195;47.744;7.358;2023-09-12T06:49:34;21.70;99.90
37310;DHT22;23195;47.744;7.358;2023-09-12T06:52:01;21.80;99.90
37310;DHT22;23195;47.744;7.358;2023-09-12T06:54:27;22.00;99.90
37310;DHT22;23195;47.744;7.358;2023-09-12T06:56:53;22.20;99.90
37310;DHT22;23195;47.744;7.358;2023-09-12T06:59:19;22.40;99.90
37310;DHT22;23195;47.744;7.358;2023-09-12T07:01:48;22.60;99.90
37310;DHT22;23195;47.744;7.358;2023-09-12T07:04:23;22.80;99.90
37310;DHT22;23195;47.744;7.358;2023-09-12T07:06:49;23.60;99.90
37310;DHT22;23195;47.744;7.358;2023-09-12T07:09:20;24.60;99.90
37310;DHT22;23195;47.744;7.358;2023-09-12T07:12:01;26.30;99.90
37310;DHT22;23195;47.744;7.358;2023-09-12T07:14:34;28.00;99.90
37310;DHT22;23195;47.744;7.358;2023-09-12T07:17:03;28.10;99.90
37310;DHT22;23195;47.744;7.358;2023-09-12T07:19:33;28.70;99.90
37310;DHT22;23195;47.744;7.358;2023-09-12T07:22:02;29.90;99.90
37310;DHT22;23195;47.744;7.358;2023-09-12T07:24:44;30.90;99.70
37310;DHT22;23195;47.744;7.358;2023-09-12T07:27:12;31.70;97.20
37310;DHT22;23195;47.744;7.358;2023-09-12T07:29:41;32.60;95.00
37310;DHT22;23195;47.744;7.358;2023-09-12T07:32:15;32.90;93.00
37310;DHT22;23195;47.744;7.358;2023-09-12T07:34:51;33.60;90.80
37310;DHT22;23195;47.744;7.358;2023-09-12T07:37:26;34.00;86.80
37310;DHT22;23195;47.744;7.358;2023-09-12T07:39:57;34.10;84.30
37310;DHT22;23195;47.744;7.358;2023-09-12T07:42:27;33.60;83.60
37310;DHT22;23195;47.744;7.358;2023-09-12T07:44:53;34.00;81.90
37310;DHT22;23195;47.744;7.358;2023-09-12T07:47:44;34.30;78.90
37310;DHT22;23195;47.744;7.358;2023-09-12T07:50:34;34.40;79.80
37310;DHT22;23195;47.744;7.358;2023-09-12T07:53:20;35.10;77.70
37310;DHT22;23195;47.744;7.358;2023-09-12T07:56:04;35.00;74.00
37310;DHT22;23195;47.744;7.358;2023-09-12T07:58:45;35.50;72.30
37310;DHT22;23195;47.744;7.358;2023-09-12T08:01:15;35.00;70.50
37310;DHT22;23195;47.744;7.358;2023-09-12T08:03:49;34.20;71.00
37310;DHT22;23195;47.744;7.358;2023-09-12T08:06:28;33.80;70.00
37310;DHT22;23195;47.744;7.358;2023-09-12T08:08:57;34.10;69.40
37310;DHT22;23195;47.744;7.358;2023-09-12T08:11:25;34.50;68.90
37310;DHT22;23195;47.744;7.358;2023-09-12T08:14:02;35.00;68.60
37310;DHT22;23195;47.744;7.358;2023-09-12T08:16:30;34.90;66.20
37310;DHT22;23195;47.744;7.358;2023-09-12T08:19:04;34.90;66.20
37310;DHT22;23195;47.744;7.358;2023-09-12T08:21:38;34.40;65.50
37310;DHT22;23195;47.744;7.358;2023-09-12T08:24:14;33.90;66.60
37310;DHT22;23195;47.744;7.358;2023-09-12T08:26:40;33.20;68.60
37310;DHT22;23195;47.744;7.358;2023-09-12T08:29:14;32.20;69.30
37310;DHT22;23195;47.744;7.358;2023-09-12T08:31:57;31.40;69.20
37310;DHT22;23195;47.744;7.358;2023-09-12T08:34:32;31.20;71.00
37310;DHT22;23195;47.744;7.358;2023-09-12T08:37:03;31.80;69.50
37310;DHT22;23195;47.744;7.358;2023-09-12T08:39:58;32.70;67.70
37310;DHT22;23195;47.744;7.358;2023-09-12T08:42:54;33.20;65.40
37310;DHT22;23195;47.744;7.358;2023-09-12T08:45:32;33.50;65.60
37310;DHT22;23195;47.744;7.358;2023-09-12T08:48:01;33.70;63.30
37310;DHT22;23195;47.744;7.358;2023-09-12T08:50:29;33.50;63.40
37310;DHT22;23195;47.744;7.358;2023-09-12T08:52:58;33.20;66.00
37310;DHT22;23195;47.744;7.358;2023-09-12T08:55:27;32.70;65.20
37310;DHT22;23195;47.744;7.358;2023-09-12T08:57:57;32.20;67.10
37310;DHT22;23195;47.744;7.358;2023-09-12T09:00:23;31.70;68.40
37310;DHT22;23195;47.744;7.358;2023-09-12T09:02:52;31.30;68.90
37310;DHT22;23195;47.744;7.358;2023-09-12T09:05:25;31.20;69.80
37310;DHT22;23195;47.744;7.358;2023-09-12T09:07:55;31.30;70.40
37310;DHT22;23195;47.744;7.358;2023-09-12T09:10:24;31.30;69.40
37310;DHT22;23195;47.744;7.358;2023-09-12T09:13:02;31.30;70.60
37310;DHT22;23195;47.744;7.358;2023-09-12T09:15:32;30.90;70.60
37310;DHT22;23195;47.744;7.358;2023-09-12T09:18:02;30.50;70.80
37310;DHT22;23195;47.744;7.358;2023-09-12T09:20:48;30.30;71.20
37310;DHT22;23195;47.744;7.358;2023-09-12T09:23:15;30.10;70.70
37310;DHT22;23195;47.744;7.358;2023-09-12T09:25:52;29.90;70.20
37310;DHT22;23195;47.744;7.358;2023-09-12T09:28:21;29.70;68.20
37310;DHT22;23195;47.744;7.358;2023-09-12T09:30:54;29.40;67.20
37310;DHT22;23195;47.744;7.358;2023-09-12T09:33:35;29.30;67.80
37310;DHT22;23195;47.744;7.358;2023-09-12T09:36:20;29.30;70.20
37310;DHT22;23195;47.744;7.358;2023-09-12T09:38:51;29.30;68.90
37310;DHT22;23195;47.744;7.358;2023-09-12T09:41:31;29.20;68.80
37310;DHT22;23195;47.744;7.358;2023-09-12T09:44:16;29.10;69.00
37310;DHT22;23195;47.744;7.358;2023-09-12T09:46:46;29.10;68.20
37310;DHT22;23195;47.744;7.358;2023-09-12T09:49:21;29.20;69.10
37310;DHT22;23195;47.744;7.358;2023-09-12T09:52:15;29.20;69.60
37310;DHT22;23195;47.744;7.358;2023-09-12T09:54:44;29.30;68.50
37310;DHT22;23195;47.744;7.358;2023-09-12T09:57:12;29.40;68.90
37310;DHT22;23195;47.744;7.358;2023-09-12T09:59:41;29.50;69.00
37310;DHT22;23195;47.744;7.358;2023-09-12T10:02:12;29.70;68.70
37310;DHT22;23195;47.744;7.358;2023-09-12T10:04:56;29.70;68.40
37310;DHT22;23195;47.744;7.358;2023-09-12T10:07:42;29.70;68.40
37310;DHT22;23195;47.744;7.358;2023-09-12T10:10:57;29.60;68.20
37310;DHT22;23195;47.744;7.358;2023-09-12T10:14:03;29.60;69.10
37310;DHT22;23195;47.744;7.358;2023-09-12T10:17:05;29.50;71.10
37310;DHT22;23195;47.744;7.358;2023-09-12T10:19:37;29.50;68.40
37310;DHT22;23195;47.744;7.358;2023-09-12T10:22:10;29.50;68.50
37310;DHT22;23195;47.744;7.358;2023-09-12T10:24:49;29.70;69.20
37310;DHT22;23195;47.744;7.358;2023-09-12T10:27:25;29.70;68.80
37310;DHT22;23195;47.744;7.358;2023-09-12T10:29:52;29.80;67.30
37310;DHT22;23195;47.744;7.358;2023-09-12T10:32:19;29.70;68.60
37310;DHT22;23195;47.744;7.358;2023-09-12T10:34:51;29.70;68.10
37310;DHT22;23195;47.744;7.358;2023-09-12T10:37:19;29.80;68.40
37310;DHT22;23195;47.744;7.358;2023-09-12T10:39:54;29.80;67.30
37310;DHT22;23195;47.744;7.358;2023-09-12T10:42:24;29.80;67.90
37310;DHT22;23195;47.744;7.358;2023-09-12T10:44:55;29.70;67.20
37310;DHT22;23195;47.744;7.358;2023-09-12T10:47:38;29.80;68.10
37310;DHT22;23195;47.744;7.358;2023-09-12T10:50:05;29.80;67.50
37310;DHT22;23195;47.744;7.358;2023-09-12T10:52:32;30.00;68.60
37310;DHT22;23195;47.744;7.358;2023-09-12T10:55:04;30.20;69.40
37310;DHT22;23195;47.744;7.358;2023-09-12T10:58:01;30.30;69.50
37310;DHT22;23195;47.744;7.358;2023-09-12T11:00:30;30.30;68.30
37310;DHT22;23195;47.744;7.358;2023-09-12T11:06:32;30.40;69.90
37310;DHT22;23195;47.744;7.358;2023-09-12T11:09:21;30.50;69.10
37310;DHT22;23195;47.744;7.358;2023-09-12T11:12:03;30.50;68.70
37310;DHT22;23195;47.744;7.358;2023-09-12T11:14:29;30.60;69.40
37310;DHT22;23195;47.744;7.358;2023-09-12T11:19:46;30.50;69.00
37310;DHT22;23195;47.744;7.358;2023-09-12T11:24:53;30.30;68.80
37310;DHT22;23195;47.744;7.358;2023-09-12T11:27:20;30.20;69.20
37310;DHT22;23195;47.744;7.358;2023-09-12T11:30:03;30.30;68.40
37310;DHT22;23195;47.744;7.358;2023-09-12T11:33:04;30.30;67.70
37310;DHT22;23195;47.744;7.358;2023-09-12T11:35:54;30.30;67.40
37310;DHT22;23195;47.744;7.358;2023-09-12T11:38:34;30.50;66.70
37310;DHT22;23195;47.744;7.358;2023-09-12T11:41:00;29.80;66.90
37310;DHT22;23195;47.744;7.358;2023-09-12T11:43:29;30.70;66.20
37310;DHT22;23195;47.744;7.358;2023-09-12T11:46:07;30.80;67.20
37310;DHT22;23195;47.744;7.358;2023-09-12T11:48:44;30.90;66.70
37310;DHT22;23195;47.744;7.358;2023-09-12T11:51:20;30.90;65.80
37310;DHT22;23195;47.744;7.358;2023-09-12T11:54:04;30.80;65.40
37310;DHT22;23195;47.744;7.358;2023-09-12T11:56:40;30.90;66.40
37310;DHT22;23195;47.744;7.358;2023-09-12T11:59:09;31.10;65.00
37310;DHT22;23195;47.744;7.358;2023-09-12T12:01:35;31.00;62.80
37310;DHT22;23195;47.744;7.358;2023-09-12T12:04:11;31.10;62.80
37310;DHT22;23195;47.744;7.358;2023-09-12T12:06:38;31.10;59.80
37310;DHT22;23195;47.744;7.358;2023-09-12T12:09:13;31.10;60.50
37310;DHT22;23195;47.744;7.358;2023-09-12T12:11:48;31.20;61.60
37310;DHT22;23195;47.744;7.358;2023-09-12T12:14:16;31.30;59.90
37310;DHT22;23195;47.744;7.358;2023-09-12T12:17:36;31.40;60.10
37310;DHT22;23195;47.744;7.358;2023-09-12T12:20:17;31.40;59.80
37310;DHT22;23195;47.744;7.358;2023-09-12T12:22:58;31.40;59.90
37310;DHT22;23195;47.744;7.358;2023-09-12T12:25:31;31.40;59.60
37310;DHT22;23195;47.744;7.358;2023-09-12T12:28:00;31.30;61.00
37310;DHT22;23195;47.744;7.358;2023-09-12T12:30:42;31.30;61.90
37310;DHT22;23195;47.744;7.358;2023-09-12T12:33:09;31.50;61.70
37310;DHT22;23195;47.744;7.358;2023-09-12T12:35:45;31.60;64.00
37310;DHT22;23195;47.744;7.358;2023-09-12T12:38:14;31.80;62.70
37310;DHT22;23195;47.744;7.358;2023-09-12T12:40:45;31.70;61.90
37310;DHT22;23195;47.744;7.358;2023-09-12T12:43:21;31.80;62.10
37310;DHT22;23195;47.744;7.358;2023-09-12T12:45:55;31.70;61.70
37310;DHT22;23195;47.744;7.358;2023-09-12T12:48:34;31.70;62.40
37310;DHT22;23195;47.744;7.358;2023-09-12T12:51:15;31.70;61.90
37310;DHT22;23195;47.744;7.358;2023-09-12T12:53:46;31.60;62.40
37310;DHT22;23195;47.744;7.358;2023-09-12T12:56:18;31.50;61.10
37310;DHT22;23195;47.744;7.358;2023-09-12T12:58:51;31.50;61.20
37310;DHT22;23195;47.744;7.358;2023-09-12T13:01:18;31.40;61.00
37310;DHT22;23195;47.744;7.358;2023-09-12T13:03:46;31.30;61.30
37310;DHT22;23195;47.744;7.358;2023-09-12T13:06:14;31.40;61.90
37310;DHT22;23195;47.744;7.358;2023-09-12T13:12:05;31.30;60.60
37310;DHT22;23195;47.744;7.358;2023-09-12T13:14:40;31.30;62.90
37310;DHT22;23195;47.744;7.358;2023-09-12T13:20:06;31.70;60.80
37310;DHT22;23195;47.744;7.358;2023-09-12T13:22:46;31.40;60.50
37310;DHT22;23195;47.744;7.358;2023-09-12T13:25:15;31.50;61.20
37310;DHT22;23195;47.744;7.358;2023-09-12T13:27:55;31.50;60.80
37310;DHT22;23195;47.744;7.358;2023-09-12T13:30:33;31.50;59.80
37310;DHT22;23195;47.744;7.358;2023-09-12T13:33:43;31.50;59.70
37310;DHT22;23195;47.744;7.358;2023-09-12T13:39:25;31.50;60.30
37310;DHT22;23195;47.744;7.358;2023-09-12T13:42:06;31.30;61.30
37310;DHT22;23195;47.744;7.358;2023-09-12T13:44:55;31.40;60.40
37310;DHT22;23195;47.744;7.358;2023-09-12T13:47:34;31.40;59.10
37310;DHT22;23195;47.744;7.358;2023-09-12T13:50:22;31.40;59.40
37310;DHT22;23195;47.744;7.358;2023-09-12T13:53:05;31.40;57.90
37310;DHT22;23195;47.744;7.358;2023-09-12T13:55:35;31.30;59.90
37310;DHT22;23195;47.744;7.358;2023-09-12T13:58:30;31.20;60.50
37310;DHT22;23195;47.744;7.358;2023-09-12T14:00:56;31.30;59.70
37310;DHT22;23195;47.744;7.358;2023-09-12T14:03:34;31.30;59.50
37310;DHT22;23195;47.744;7.358;2023-09-12T14:12:48;31.30;58.10
37310;DHT22;23195;47.744;7.358;2023-09-12T14:15:23;31.30;57.80
37310;DHT22;23195;47.744;7.358;2023-09-12T14:24:06;31.40;58.20
37310;DHT22;23195;47.744;7.358;2023-09-12T14:26:32;31.30;58.20
37310;DHT22;23195;47.744;7.358;2023-09-12T14:29:10;31.30;58.20
37310;DHT22;23195;47.744;7.358;2023-09-12T14:32:04;31.40;58.40
37310;DHT22;23195;47.744;7.358;2023-09-12T14:34:45;31.50;57.60
37310;DHT22;23195;47.744;7.358;2023-09-12T14:37:21;31.50;58.30
37310;DHT22;23195;47.744;7.358;2023-09-12T14:40:08;31.40;58.40
37310;DHT22;23195;47.744;7.358;2023-09-12T14:42:48;31.40;57.90
37310;DHT22;23195;47.744;7.358;2023-09-12T14:49:13;31.50;57.50
37310;DHT22;23195;47.744;7.358;2023-09-12T14:52:04;31.50;58.30
37310;DHT22;23195;47.744;7.358;2023-09-12T14:55:03;31.60;58.10
37310;DHT22;23195;47.744;7.358;2023-09-12T14:58:08;31.60;58.20
37310;DHT22;23195;47.744;7.358;2023-09-12T15:00:57;31.60;57.70
37310;DHT22;23195;47.744;7.358;2023-09-12T15:04:12;31.50;57.30
37310;DHT22;23195;47.744;7.358;2023-09-12T15:07:12;31.50;56.10
37310;DHT22;23195;47.744;7.358;2023-09-12T15:10:22;31.60;56.00
37310;DHT22;23195;47.744;7.358;2023-09-12T15:12:51;31.60;56.90
37310;DHT22;23195;47.744;7.358;2023-09-12T15:23:22;31.50;54.10
37310;DHT22;23195;47.744;7.358;2023-09-12T15:43:49;30.70;55.90
37310;DHT22;23195;47.744;7.358;2023-09-12T16:11:23;29.50;61.40
37310;DHT22;23195;47.744;7.358;2023-09-12T16:17:30;29.00;63.60
37310;DHT22;23195;47.744;7.358;2023-09-12T16:20:31;28.80;65.00
37310;DHT22;23195;47.744;7.358;2023-09-12T16:23:26;28.80;66.20
37310;DHT22;23195;47.744;7.358;2023-09-12T16:30:01;28.40;68.20
37310;DHT22;23195;47.744;7.358;2023-09-12T17:16:20;27.50;77.40
37310;DHT22;23195;47.744;7.358;2023-09-12T17:19:03;27.40;78.20
37310;DHT22;23195;47.744;7.358;2023-09-12T17:25:59;27.30;79.80
37310;DHT22;23195;47.744;7.358;2023-09-12T17:36:17;26.80;82.60
37310;DHT22;23195;47.744;7.358;2023-09-12T17:55:54;26.10;87.40
37310;DHT22;23195;47.744;7.358;2023-09-12T17:59:45;26.10;88.00
37310;DHT22;23195;47.744;7.358;2023-09-12T18:12:52;25.70;90.20
37310;DHT22;23195;47.744;7.358;2023-09-12T18:15:30;25.70;91.60
37310;DHT22;23195;47.744;7.358;2023-09-12T18:18:08;25.70;90.90
37310;DHT22;23195;47.744;7.358;2023-09-12T18:20:34;25.60;91.00
37310;DHT22;23195;47.744;7.358;2023-09-12T18:23:10;25.60;91.10
37310;DHT22;23195;47.744;7.358;2023-09-12T18:25:36;25.60;91.00
37310;DHT22;23195;47.744;7.358;2023-09-12T18:28:02;25.60;91.00
37310;DHT22;23195;47.744;7.358;2023-09-12T18:30:38;25.50;91.10
37310;DHT22;23195;47.744;7.358;2023-09-12T18:33:09;25.50;91.20
37310;DHT22;23195;47.744;7.358;2023-09-12T18:35:35;25.50;91.70
37310;DHT22;23195;47.744;7.358;2023-09-12T18:38:01;25.40;91.50
37310;DHT22;23195;47.744;7.358;2023-09-12T18:40:34;25.40;91.70
37310;DHT22;23195;47.744;7.358;2023-09-12T18:42:59;25.20;91.80
37310;DHT22;23195;47.744;7.358;2023-09-12T18:45:25;25.30;92.00
37310;DHT22;23195;47.744;7.358;2023-09-12T18:47:51;25.20;92.10
37310;DHT22;23195;47.744;7.358;2023-09-12T18:50:17;25.30;92.30
37310;DHT22;23195;47.744;7.358;2023-09-12T18:52:47;25.20;92.40
37310;DHT22;23195;47.744;7.358;2023-09-12T18:55:16;25.20;92.50
37310;DHT22;23195;47.744;7.358;2023-09-12T18:57:45;25.20;92.70
37310;DHT22;23195;47.744;7.358;2023-09-12T19:00:12;25.10;92.80
37310;DHT22;23195;47.744;7.358;2023-09-12T19:02:41;25.10;93.00
37310;DHT22;23195;47.744;7.358;2023-09-12T19:05:07;25.10;93.10